Time;durP1;ratioP1;P1;durP2;ratioP2;P2;SDS_P1;SDS_P2;PMS_P1;PMS_P2;Temp;Humidity;BMP_temperature;BMP_pressure;BME280_temperature;BME280_humidity;BME280_pressure;Samples;Min_cycle;Max_cycle;Signal;HPM_P1;HPM_P2
2021/10/29 00:00:22;;;;;;;11.30;8.73;;;14.00;80.10;;;;;;5037742;28;20028;-76
2021/10/29 00:02:48;;;;;;;16.00;9.88;;;14.10;80.00;;;;;;5055494;28;20032;-75
2021/10/29 00:05:13;;;;;;;13.75;9.73;;;14.00;79.80;;;;;;5054373;28;20043;-75
2021/10/29 00:07:39;;;;;;;16.17;9.95;;;14.00;80.00;;;;;;5045507;28;20873;-75
2021/10/29 00:10:07;;;;;;;15.18;9.80;;;14.10;79.70;;;;;;5035864;28;20032;-75
2021/10/29 00:12:33;;;;;;;13.60;8.75;;;14.20;79.60;;;;;;5035572;28;20029;-75
2021/10/29 00:14:59;;;;;;;16.58;10.23;;;14.20;79.40;;;;;;5035683;28;20036;-75
2021/10/29 00:17:25;;;;;;;16.95;9.38;;;14.10;79.30;;;;;;5035650;28;20392;-75
2021/10/29 00:19:51;;;;;;;13.25;9.43;;;14.10;79.50;;;;;;5034231;28;20025;-75
2021/10/29 00:22:16;;;;;;;16.77;9.88;;;14.10;79.60;;;;;;5035620;28;20109;-75
2021/10/29 00:24:42;;;;;;;12.63;8.85;;;14.20;79.40;;;;;;5051054;28;20017;-76
2021/10/29 00:27:11;;;;;;;14.75;9.15;;;14.10;79.50;;;;;;5060390;28;20036;-75
2021/10/29 00:29:36;;;;;;;15.27;8.63;;;14.10;79.50;;;;;;5055157;28;20081;-75
2021/10/29 00:32:03;;;;;;;14.82;8.82;;;14.10;79.50;;;;;;5053554;28;20487;-75
2021/10/29 00:34:29;;;;;;;14.02;8.73;;;14.10;79.40;;;;;;5047017;28;20021;-75
2021/10/29 00:36:55;;;;;;;16.90;8.95;;;14.10;79.40;;;;;;5035256;28;20026;-75
2021/10/29 00:39:21;;;;;;;17.70;8.65;;;14.10;79.50;;;;;;5035690;28;20033;-75
2021/10/29 00:41:47;;;;;;;14.32;8.45;;;14.20;79.30;;;;;;5034239;28;20385;-75
2021/10/29 00:44:24;;;;;;;13.30;8.25;;;14.10;79.30;;;;;;5034112;28;20104;-75
2021/10/29 00:46:50;;;;;;;14.35;8.65;;;14.20;79.10;;;;;;5054666;28;20040;-75
2021/10/29 00:49:16;;;;;;;14.95;7.93;;;14.20;79.00;;;;;;5049989;28;20022;-75
2021/10/29 00:51:43;;;;;;;11.88;8.40;;;14.20;79.00;;;;;;5035233;28;20038;-75
2021/10/29 00:54:10;;;;;;;15.20;8.30;;;14.20;78.90;;;;;;5035179;28;20557;-75
2021/10/29 00:56:35;;;;;;;11.75;7.82;;;14.30;78.80;;;;;;5035579;28;20041;-75
2021/10/29 00:59:01;;;;;;;10.48;7.90;;;14.30;78.60;;;;;;5038225;28;20083;-75
2021/10/29 01:01:27;;;;;;;13.35;7.78;;;14.30;78.50;;;;;;5037789;28;20034;-75
2021/10/29 01:03:52;;;;;;;11.90;7.10;;;14.40;78.40;;;;;;5039315;28;20029;-75
2021/10/29 01:06:18;;;;;;;12.35;6.97;;;14.50;78.30;;;;;;5037828;28;20060;-76
2021/10/29 01:08:44;;;;;;;12.00;6.70;;;14.50;78.00;;;;;;5037794;28;20026;-76
2021/10/29 01:11:15;;;;;;;10.25;7.45;;;14.50;78.20;;;;;;5039107;28;20029;-75
2021/10/29 01:13:45;;;;;;;11.32;6.97;;;14.60;77.90;;;;;;5048345;28;20025;-75
2021/10/29 01:16:11;;;;;;;9.90;6.80;;;14.60;77.80;;;;;;5057786;28;20578;-75
2021/10/29 01:18:37;;;;;;;9.90;6.40;;;14.60;77.80;;;;;;5058938;28;20032;-76
2021/10/29 01:21:03;;;;;;;10.00;6.28;;;14.60;77.60;;;;;;5054106;28;20049;-75
2021/10/29 01:23:35;;;;;;;10.20;6.63;;;14.60;77.50;;;;;;5039155;28;20476;-75
2021/10/29 01:26:07;;;;;;;9.70;6.30;;;14.70;77.30;;;;;;5059362;28;20080;-75
2021/10/29 01:28:32;;;;;;;12.18;6.35;;;14.70;77.00;;;;;;5046925;28;20115;-76
2021/10/29 01:30:58;;;;;;;9.68;6.47;;;14.70;77.00;;;;;;5058600;28;20483;-76
2021/10/29 01:33:24;;;;;;;11.98;6.32;;;14.70;76.80;;;;;;5057369;28;20025;-75
2021/10/29 01:35:50;;;;;;;9.73;6.45;;;14.70;76.40;;;;;;5058721;28;20108;-76
2021/10/29 01:38:16;;;;;;;8.25;6.10;;;14.80;76.40;;;;;;5058515;28;20108;-76
2021/10/29 01:40:46;;;;;;;8.55;6.13;;;14.80;76.60;;;;;;5058434;28;20093;-75
2021/10/29 01:43:12;;;;;;;10.88;6.63;;;14.80;77.00;;;;;;5041310;28;20029;-75
2021/10/29 01:45:38;;;;;;;8.18;5.80;;;14.70;77.60;;;;;;5038133;28;20682;-76
2021/10/29 01:48:04;;;;;;;11.18;6.60;;;14.70;77.90;;;;;;5038560;28;20107;-76
2021/10/29 01:50:30;;;;;;;9.85;5.93;;;14.70;78.00;;;;;;5053502;28;20078;-75
2021/10/29 01:52:55;;;;;;;9.55;6.05;;;14.70;78.50;;;;;;5058324;28;20100;-75
2021/10/29 01:55:21;;;;;;;9.60;6.45;;;14.60;78.50;;;;;;5055733;28;20697;-75
2021/10/29 01:57:56;;;;;;;9.55;5.65;;;14.60;79.20;;;;;;5038326;28;20026;-75
2021/10/29 02:00:22;;;;;;;8.52;6.15;;;14.50;79.50;;;;;;5038622;28;20473;-75
2021/10/29 02:02:48;;;;;;;11.20;6.50;;;14.50;79.50;;;;;;5036628;28;20029;-75
2021/10/29 02:05:13;;;;;;;12.90;7.15;;;14.50;79.90;;;;;;5036934;28;20076;-75
2021/10/29 02:07:39;;;;;;;11.02;6.50;;;14.50;80.00;;;;;;5038121;28;20025;-76
2021/10/29 02:10:05;;;;;;;14.82;6.85;;;14.40;80.60;;;;;;5044372;28;20071;-76
2021/10/29 02:12:31;;;;;;;9.77;5.72;;;14.40;80.80;;;;;;5058031;28;20021;-75
2021/10/29 02:14:59;;;;;;;12.07;6.55;;;14.30;80.60;;;;;;5057786;28;20479;-75
2021/10/29 02:17:26;;;;;;;11.88;7.80;;;14.30;80.90;;;;;;5057740;28;20484;-75
2021/10/29 02:19:52;;;;;;;15.65;7.75;;;14.30;81.40;;;;;;5041374;28;20040;-75
2021/10/29 02:22:18;;;;;;;12.73;7.28;;;14.30;81.40;;;;;;5038484;28;20029;-75
2021/10/29 02:24:44;;;;;;;11.38;7.18;;;14.30;81.70;;;;;;5064554;28;20390;-75
2021/10/29 02:27:09;;;;;;;7.57;5.72;;;14.20;82.10;;;;;;5076530;28;20027;-76
2021/10/29 02:29:35;;;;;;;9.43;5.63;;;14.20;82.10;;;;;;5055107;28;20036;-75
2021/10/29 02:32:05;;;;;;;11.75;6.65;;;14.20;82.10;;;;;;5037616;28;20026;-75
2021/10/29 02:34:30;;;;;;;10.93;6.70;;;14.20;82.70;;;;;;5037724;28;20030;-75
2021/10/29 02:36:56;;;;;;;14.23;7.22;;;14.10;82.60;;;;;;5037538;28;20166;-76
2021/10/29 02:39:22;;;;;;;12.52;6.53;;;14.20;82.60;;;;;;5037457;28;20060;-75
2021/10/29 02:41:47;;;;;;;9.65;6.57;;;14.20;82.60;;;;;;5037558;28;20506;-75
2021/10/29 02:44:13;;;;;;;11.70;6.93;;;14.20;82.50;;;;;;5037382;28;20025;-75
2021/10/29 02:46:39;;;;;;;12.55;6.97;;;14.30;82.50;;;;;;5035794;28;20056;-75
2021/10/29 02:49:11;;;;;;;9.90;6.07;;;14.30;82.50;;;;;;5035766;28;20018;-75
2021/10/29 02:51:36;;;;;;;15.85;7.55;;;14.20;82.80;;;;;;5037309;28;20030;-75
2021/10/29 02:54:02;;;;;;;11.38;6.93;;;14.20;82.70;;;;;;5037249;28;20035;-75
2021/10/29 02:56:28;;;;;;;10.65;5.72;;;14.20;82.90;;;;;;5036185;28;20064;-75
2021/10/29 02:58:54;;;;;;;14.07;6.80;;;14.20;82.80;;;;;;5037217;28;20025;-75
2021/10/29 03:01:19;;;;;;;13.65;6.75;;;14.20;83.00;;;;;;5035525;28;20060;-75
2021/10/29 03:03:45;;;;;;;11.77;5.93;;;14.30;83.20;;;;;;5037273;28;20018;-75
2021/10/29 03:06:21;;;;;;;10.70;6.75;;;14.30;82.90;;;;;;5037037;28;20067;-75
2021/10/29 03:08:46;;;;;;;10.35;5.72;;;14.30;83.10;;;;;;5035864;28;20043;-75
2021/10/29 03:11:12;;;;;;;8.10;6.18;;;14.20;83.30;;;;;;5035911;28;20509;-76
2021/10/29 03:13:38;;;;;;;12.52;7.32;;;14.30;83.50;;;;;;5049424;28;20477;-75
2021/10/29 03:16:04;;;;;;;11.05;6.50;;;14.30;83.70;;;;;;5055510;28;20427;-75
2021/10/29 03:18:30;;;;;;;13.27;7.75;;;14.30;83.70;;;;;;5055413;28;20028;-75
2021/10/29 03:20:56;;;;;;;15.48;7.85;;;14.20;84.00;;;;;;5044769;28;20025;-75
2021/10/29 03:23:25;;;;;;;13.32;7.20;;;14.20;83.90;;;;;;5036596;28;20590;-75
2021/10/29 03:25:50;;;;;;;11.25;7.13;;;14.30;83.90;;;;;;5069730;28;20056;-76
2021/10/29 03:28:16;;;;;;;11.65;6.63;;;14.30;84.10;;;;;;5074115;28;20028;-75
2021/10/29 03:30:42;;;;;;;11.57;7.38;;;14.20;84.00;;;;;;5046024;28;20038;-76
2021/10/29 03:33:09;;;;;;;14.15;6.68;;;14.20;84.30;;;;;;5035077;28;20036;-75
2021/10/29 03:35:35;;;;;;;12.05;7.35;;;14.30;84.20;;;;;;5036185;28;20175;-76
2021/10/29 03:41:01;;;;;;;20.00;6.32;;;14.30;84.00;;;;;;5036688;28;20098;-75
2021/10/29 03:43:30;;;;;;;16.83;7.75;;;14.30;83.90;;;;;;5036172;28;20415;-75
2021/10/29 03:46:20;;;;;;;12.40;7.63;;;14.30;83.90;;;;;;5051345;28;20040;-75
2021/10/29 03:49:04;;;;;;;10.15;5.68;;;14.30;83.90;;;;;;5056386;28;20017;-76
2021/10/29 03:51:56;;;;;;;13.65;5.90;;;14.30;84.00;;;;;;5054987;28;20037;-75
2021/10/29 03:54:26;;;;;;;12.70;7.43;;;14.30;84.00;;;;;;5045012;28;20488;-75
2021/10/29 03:57:21;;;;;;;9.18;5.63;;;14.30;84.20;;;;;;5051502;28;20443;-75
2021/10/29 03:59:43;;;;;;;10.80;6.97;;;14.40;84.00;;;;;;5035800;28;20021;-75
2021/10/29 04:02:12;;;;;;;13.20;7.00;;;14.30;83.90;;;;;;5053525;28;20024;-75
2021/10/29 04:04:38;;;;;;;12.93;6.28;;;14.30;83.90;;;;;;5055940;28;20025;-75
2021/10/29 04:07:04;;;;;;;9.85;6.55;;;14.30;83.90;;;;;;5055808;28;20013;-75
2021/10/29 04:09:29;;;;;;;16.55;7.47;;;14.30;84.00;;;;;;5048016;28;20427;-75
2021/10/29 04:11:55;;;;;;;14.43;6.97;;;14.30;84.00;;;;;;5034687;28;20538;-75
2021/10/29 04:14:35;;;;;;;9.07;7.63;;;14.40;84.00;;;;;;5035900;28;20091;-75
2021/10/29 04:17:01;;;;;;;13.13;6.55;;;14.40;84.00;;;;;;5035940;28;20071;-75
2021/10/29 04:19:26;;;;;;;17.70;7.53;;;14.40;84.00;;;;;;5033917;28;20037;-75
2021/10/29 04:21:52;;;;;;;15.85;7.30;;;14.40;84.00;;;;;;5050402;28;20082;-75
2021/10/29 04:24:18;;;;;;;13.65;7.30;;;14.50;83.90;;;;;;5058540;28;20411;-76
2021/10/29 04:26:43;;;;;;;16.33;7.05;;;14.50;83.90;;;;;;5054112;28;20057;-75
2021/10/29 04:29:24;;;;;;;13.45;7.03;;;14.50;84.00;;;;;;5052432;28;20025;-75
2021/10/29 04:31:53;;;;;;;10.15;6.53;;;14.50;84.20;;;;;;5035578;28;20029;-75
2021/10/29 04:34:27;;;;;;;13.85;6.60;;;14.50;84.50;;;;;;5035579;28;20036;-75
2021/10/29 04:36:57;;;;;;;11.25;6.88;;;14.40;84.50;;;;;;5035879;28;20033;-75
2021/10/29 04:39:23;;;;;;;13.25;6.25;;;14.50;84.70;;;;;;5053175;28;20028;-75
2021/10/29 04:41:52;;;;;;;10.88;7.00;;;14.50;85.00;;;;;;5055288;28;20033;-75
2021/10/29 04:44:19;;;;;;;13.60;7.95;;;14.30;85.70;;;;;;5044693;28;20032;-75
2021/10/29 04:46:45;;;;;;;12.80;7.00;;;14.30;86.10;;;;;;5035414;28;20049;-75
2021/10/29 04:49:11;;;;;;;13.18;6.28;;;14.30;86.70;;;;;;5035841;28;20025;-75
2021/10/29 04:51:37;;;;;;;14.15;7.65;;;14.30;86.60;;;;;;5035602;28;20484;-75
2021/10/29 04:54:03;;;;;;;10.73;6.38;;;14.30;86.50;;;;;;5035189;28;20091;-75
2021/10/29 04:56:29;;;;;;;12.13;6.60;;;14.30;86.40;;;;;;5035416;28;20044;-76
2021/10/29 04:58:55;;;;;;;13.45;7.45;;;14.20;86.40;;;;;;5035351;28;20025;-75
2021/10/29 05:01:20;;;;;;;16.70;7.22;;;14.20;86.60;;;;;;5033595;28;20039;-75
2021/10/29 05:03:46;;;;;;;16.40;7.07;;;14.20;86.50;;;;;;5035247;28;20018;-75
2021/10/29 05:06:12;;;;;;;10.70;6.90;;;14.20;86.60;;;;;;5035445;28;20033;-75
2021/10/29 05:08:38;;;;;;;12.18;7.20;;;14.20;86.90;;;;;;5035676;28;20017;-75
2021/10/29 05:11:08;;;;;;;10.63;6.95;;;14.20;86.70;;;;;;5035277;28;20048;-76
2021/10/29 05:13:34;;;;;;;16.35;7.38;;;14.20;86.70;;;;;;5033530;28;20037;-75
2021/10/29 05:16:00;;;;;;;16.73;7.82;;;14.20;86.70;;;;;;5054710;28;20068;-75
2021/10/29 05:18:26;;;;;;;12.40;7.15;;;14.30;86.60;;;;;;5055404;28;20112;-75
2021/10/29 05:20:52;;;;;;;14.30;8.18;;;14.30;86.60;;;;;;5053134;28;20049;-75
2021/10/29 05:23:18;;;;;;;13.10;7.22;;;14.30;86.50;;;;;;5053898;28;20028;-75
2021/10/29 05:25:44;;;;;;;14.68;8.48;;;14.30;86.60;;;;;;5071196;28;20047;-75
2021/10/29 05:28:09;;;;;;;13.70;7.40;;;14.30;86.60;;;;;;5073897;28;20054;-75
2021/10/29 05:30:37;;;;;;;15.77;8.10;;;14.30;86.50;;;;;;5054314;28;20404;-75
2021/10/29 05:33:03;;;;;;;9.85;6.05;;;14.40;86.50;;;;;;5033531;28;20486;-76
2021/10/29 05:35:29;;;;;;;14.75;7.68;;;14.30;86.60;;;;;;5029507;28;20472;-75
2021/10/29 05:37:55;;;;;;;12.75;6.95;;;14.40;87.10;;;;;;5033404;28;20030;-75
2021/10/29 05:40:21;;;;;;;14.90;8.38;;;14.40;87.40;;;;;;5034409;28;20048;-75
2021/10/29 05:42:47;;;;;;;15.88;7.53;;;14.30;88.60;;;;;;5034902;28;20021;-75
2021/10/29 05:45:13;;;;;;;13.13;6.60;;;14.30;88.70;;;;;;5037164;28;20133;-75
2021/10/29 05:47:39;;;;;;;7.45;4.47;;;14.30;89.00;;;;;;5038502;28;20018;-75
2021/10/29 05:50:10;;;;;;;7.78;3.88;;;14.30;88.10;;;;;;5053971;28;20018;-75
2021/10/29 05:52:40;;;;;;;5.80;3.10;;;14.30;87.60;;;;;;5038445;28;20079;-75
2021/10/29 05:55:17;;;;;;;4.75;2.33;;;14.20;85.80;;;;;;5038390;28;20018;-75
2021/10/29 05:57:52;;;;;;;4.05;1.73;;;14.10;85.70;;;;;;5036690;28;20097;-75
2021/10/29 06:00:24;;;;;;;9.75;2.50;;;14.00;85.90;;;;;;5038302;28;20075;-75
2021/10/29 06:02:50;;;;;;;5.85;2.40;;;14.00;86.20;;;;;;5052128;28;20021;-75
2021/10/29 06:05:16;;;;;;;9.07;2.85;;;14.00;86.30;;;;;;5058006;28;20021;-75
2021/10/29 06:07:43;;;;;;;7.72;2.65;;;14.00;86.60;;;;;;5058086;28;20037;-75
2021/10/29 06:10:13;;;;;;;6.22;2.25;;;14.00;86.00;;;;;;5041039;28;20116;-75
2021/10/29 06:12:39;;;;;;;6.07;2.05;;;14.10;86.20;;;;;;5036943;28;20025;-74
2021/10/29 06:15:06;;;;;;;3.65;1.90;;;14.00;85.90;;;;;;5050147;28;20116;-75
2021/10/29 06:17:33;;;;;;;8.00;2.30;;;13.90;86.10;;;;;;5056931;28;20028;-75
2021/10/29 06:19:59;;;;;;;4.45;2.15;;;13.90;86.10;;;;;;5038063;28;20053;-79
2021/10/29 06:22:38;;;;;;;5.65;2.40;;;13.90;86.00;;;;;;5037946;28;20017;-80
2021/10/29 06:25:28;;;;;;;7.15;3.40;;;13.90;86.00;;;;;;5058275;28;20025;-80
2021/10/29 06:30:39;;;;;;;6.78;2.33;;;13.90;86.30;;;;;;5037667;28;20071;-79
2021/10/29 06:33:05;;;;;;;7.85;2.25;;;14.00;86.10;;;;;;5037507;28;20089;-79
2021/10/29 06:35:31;;;;;;;7.95;2.65;;;14.00;86.00;;;;;;5037354;28;20473;-78
2021/10/29 06:38:00;;;;;;;7.72;2.38;;;13.90;86.00;;;;;;5037431;28;20063;-79
2021/10/29 06:40:28;;;;;;;6.60;2.60;;;13.90;86.10;;;;;;5037357;28;20029;-78
2021/10/29 06:42:57;;;;;;;4.13;2.08;;;13.90;86.30;;;;;;5037356;28;20045;-80
2021/10/29 06:48:14;;;;;;;10.17;2.87;;;13.90;86.70;;;;;;5046170;28;20033;-81
2021/10/29 06:59:19;;;;;;;7.28;3.75;;;14.00;87.30;;;;;;5037250;28;20063;-82
2021/10/29 07:04:26;;;;;;;15.20;4.70;;;13.90;87.50;;;;;;5041954;28;20104;-80
2021/10/29 07:42:24;;;;;;;11.75;3.08;;;14.60;86.00;;;;;;5045017;28;20040;-79
2021/10/29 07:44:49;;;;;;;9.15;3.08;;;14.70;86.10;;;;;;5044581;28;20029;-79
2021/10/29 07:47:16;;;;;;;12.68;3.00;;;14.70;85.70;;;;;;5038977;28;20099;-79
2021/10/29 07:49:42;;;;;;;10.63;3.42;;;14.70;85.80;;;;;;5036332;28;20025;-79
2021/10/29 07:52:09;;;;;;;11.38;3.03;;;14.80;85.70;;;;;;5036369;28;20064;-78
2021/10/29 07:54:35;;;;;;;14.55;2.90;;;14.80;85.30;;;;;;5036188;28;20373;-79
2021/10/29 07:57:01;;;;;;;13.40;2.70;;;14.90;85.50;;;;;;5036041;28;20025;-78
2021/10/29 07:59:28;;;;;;;11.85;3.20;;;14.90;85.60;;;;;;5034686;28;20117;-81
2021/10/29 08:01:54;;;;;;;11.57;2.78;;;14.80;85.70;;;;;;5034741;28;20408;-78
2021/10/29 08:04:39;;;;;;;;;;;;;;;;;;;;;
2021/10/29 08:09:57;;;;;;;11.00;1.95;;;14.90;85.30;;;;;;5050842;28;20033;-79
2021/10/29 08:12:42;;;;;;;;;;;;;;;;;;;;;
2021/10/29 08:15:34;;;;;;;8.88;1.70;;;15.00;84.50;;;;;;5053709;28;20027;-79
2021/10/29 08:18:07;;;;;;;;;;;;;;;;;;;;;
2021/10/29 08:21:14;;;;;;;;;;;;;;;;;;;;;
2021/10/29 08:24:01;;;;;;;;;;;;;;;;;;;;;
2021/10/29 08:30:25;;;;;;;;;;;;;;;;;;;;;
